sensor_id;sensor_type;location;lat;lon;timestamp;pressure;altitude;pressure_sealevel;temperature;humidity
6567;BME280;3317;43.994;22.878;2023-03-01T00:02:22;102098.88;;;4.73;100.00
6567;BME280;3317;43.994;22.878;2023-03-01T00:04:49;102098.69;;;4.76;100.00
6567;BME280;3317;43.994;22.878;2023-03-01T00:07:16;102107.88;;;4.72;100.00
6567;BME280;3317;43.994;22.878;2023-03-01T00:09:43;102100.53;;;4.75;100.00
6567;BME280;3317;43.994;22.878;2023-03-01T00:12:11;102090.63;;;4.76;100.00
6567;BME280;3317;43.994;22.878;2023-03-01T00:14:38;102094.91;;;4.80;100.00
6567;BME280;3317;43.994;22.878;2023-03-01T00:17:06;102094.50;;;4.88;100.00
6567;BME280;3317;43.994;22.878;2023-03-01T00:19:33;102096.53;;;4.83;100.00
6567;BME280;3317;43.994;22.878;2023-03-01T00:22:00;102101.78;;;4.86;100.00
6567;BME280;3317;43.994;22.878;2023-03-01T00:24:27;102096.66;;;4.81;100.00
6567;BME280;3317;43.994;22.878;2023-03-01T00:26:54;102081.47;;;4.80;100.00
6567;BME280;3317;43.994;22.878;2023-03-01T00:29:22;102033.59;;;4.55;100.00
6567;BME280;3317;43.994;22.878;2023-03-01T00:31:49;102078.31;;;4.72;100.00
6567;BME280;3317;43.994;22.878;2023-03-01T00:34:17;102065.06;;;4.69;100.00
6567;BME280;3317;43.994;22.878;2023-03-01T00:36:44;102063.34;;;4.68;100.00
6567;BME280;3317;43.994;22.878;2023-03-01T00:39:13;102068.53;;;4.71;100.00
6567;BME280;3317;43.994;22.878;2023-03-01T00:41:41;102064.97;;;4.70;100.00
6567;BME280;3317;43.994;22.878;2023-03-01T00:44:08;102049.19;;;4.64;100.00
6567;BME280;3317;43.994;22.878;2023-03-01T00:46:35;102074.16;;;4.66;100.00
6567;BME280;3317;43.994;22.878;2023-03-01T00:49:02;102051.88;;;4.64;100.00
6567;BME280;3317;43.994;22.878;2023-03-01T00:51:31;102057.78;;;4.71;100.00
6567;BME280;3317;43.994;22.878;2023-03-01T00:54:00;102056.06;;;4.70;100.00
6567;BME280;3317;43.994;22.878;2023-03-01T00:56:28;102050.59;;;4.71;100.00
6567;BME280;3317;43.994;22.878;2023-03-01T00:58:56;102042.47;;;4.73;100.00
6567;BME280;3317;43.994;22.878;2023-03-01T01:01:24;102039.59;;;4.76;100.00
6567;BME280;3317;43.994;22.878;2023-03-01T01:03:54;102040.72;;;4.72;100.00
6567;BME280;3317;43.994;22.878;2023-03-01T01:06:22;102043.25;;;4.75;100.00
6567;BME280;3317;43.994;22.878;2023-03-01T01:08:52;102041.50;;;4.74;100.00
6567;BME280;3317;43.994;22.878;2023-03-01T01:11:20;102044.19;;;4.74;100.00
6567;BME280;3317;43.994;22.878;2023-03-01T01:13:47;102045.94;;;4.75;100.00
6567;BME280;3317;43.994;22.878;2023-03-01T01:16:15;102045.16;;;4.73;100.00
6567;BME280;3317;43.994;22.878;2023-03-01T01:18:43;102033.44;;;4.74;100.00
6567;BME280;3317;43.994;22.878;2023-03-01T01:21:12;102026.53;;;4.70;100.00
6567;BME280;3317;43.994;22.878;2023-03-01T01:23:39;102039.59;;;4.76;100.00
6567;BME280;3317;43.994;22.878;2023-03-01T01:26:10;102034.16;;;4.77;100.00
6567;BME280;3317;43.994;22.878;2023-03-01T01:28:38;102029.56;;;4.79;100.00
6567;BME280;3317;43.994;22.878;2023-03-01T01:31:05;102032.19;;;4.81;100.00
6567;BME280;3317;43.994;22.878;2023-03-01T01:33:33;102022.38;;;4.80;100.00
6567;BME280;3317;43.994;22.878;2023-03-01T01:36:00;102023.22;;;4.81;100.00
6567;BME280;3317;43.994;22.878;2023-03-01T01:38:27;102017.69;;;4.84;100.00
6567;BME280;3317;43.994;22.878;2023-03-01T01:40:54;102027.84;;;4.78;100.00
6567;BME280;3317;43.994;22.878;2023-03-01T01:43:27;102022.97;;;4.85;100.00
6567;BME280;3317;43.994;22.878;2023-03-01T01:45:57;102009.72;;;4.82;100.00
6567;BME280;3317;43.994;22.878;2023-03-01T01:48:32;102015.09;;;4.82;100.00
6567;BME280;3317;43.994;22.878;2023-03-01T01:51:08;102005.63;;;4.75;100.00
6567;BME280;3317;43.994;22.878;2023-03-01T01:53:37;102021.75;;;4.75;100.00
6567;BME280;3317;43.994;22.878;2023-03-01T01:56:07;102009.88;;;4.79;100.00
6567;BME280;3317;43.994;22.878;2023-03-01T01:58:37;102014.41;;;4.78;100.00
6567;BME280;3317;43.994;22.878;2023-03-01T02:01:05;102009.09;;;4.77;100.00
6567;BME280;3317;43.994;22.878;2023-03-01T02:03:34;102020.91;;;4.74;100.00
6567;BME280;3317;43.994;22.878;2023-03-01T02:06:12;102011.97;;;4.74;100.00
6567;BME280;3317;43.994;22.878;2023-03-01T02:08:42;102015.06;;;4.66;100.00
6567;BME280;3317;43.994;22.878;2023-03-01T02:11:10;102006.84;;;4.69;100.00
6567;BME280;3317;43.994;22.878;2023-03-01T02:13:41;102008.69;;;4.69;100.00
6567;BME280;3317;43.994;22.878;2023-03-01T02:16:10;101988.97;;;4.52;100.00
6567;BME280;3317;43.994;22.878;2023-03-01T02:18:39;102004.50;;;4.63;100.00
6567;BME280;3317;43.994;22.878;2023-03-01T02:21:15;101993.41;;;4.69;100.00
6567;BME280;3317;43.994;22.878;2023-03-01T02:23:44;101992.47;;;4.70;100.00
6567;BME280;3317;43.994;22.878;2023-03-01T02:26:18;101986.56;;;4.63;100.00
6567;BME280;3317;43.994;22.878;2023-03-01T02:28:48;101985.59;;;4.64;100.00
6567;BME280;3317;43.994;22.878;2023-03-01T02:31:17;101992.28;;;4.57;100.00
6567;BME280;3317;43.994;22.878;2023-03-01T02:34:02;101987.75;;;4.58;100.00
6567;BME280;3317;43.994;22.878;2023-03-01T02:36:33;101990.38;;;4.59;100.00
6567;BME280;3317;43.994;22.878;2023-03-01T02:39:03;101994.53;;;4.65;100.00
6567;BME280;3317;43.994;22.878;2023-03-01T02:41:34;101979.63;;;4.59;100.00
6567;BME280;3317;43.994;22.878;2023-03-01T02:44:04;101985.53;;;4.66;100.00
6567;BME280;3317;43.994;22.878;2023-03-01T02:46:32;101987.00;;;4.72;100.00
6567;BME280;3317;43.994;22.878;2023-03-01T02:48:59;101984.31;;;4.72;100.00
6567;BME280;3317;43.994;22.878;2023-03-01T02:51:42;101987.47;;;4.80;100.00
6567;BME280;3317;43.994;22.878;2023-03-01T02:54:17;101989.09;;;4.83;100.00
6567;BME280;3317;43.994;22.878;2023-03-01T02:56:49;101989.78;;;4.86;100.00
6567;BME280;3317;43.994;22.878;2023-03-01T02:59:19;101988.25;;;4.82;100.00
6567;BME280;3317;43.994;22.878;2023-03-01T03:01:47;101988.38;;;4.79;100.00
6567;BME280;3317;43.994;22.878;2023-03-01T03:04:16;101992.38;;;4.72;100.00
6567;BME280;3317;43.994;22.878;2023-03-01T03:06:43;101991.50;;;4.71;100.00
6567;BME280;3317;43.994;22.878;2023-03-01T03:09:10;101971.03;;;4.53;100.00
6567;BME280;3317;43.994;22.878;2023-03-01T03:11:37;101992.31;;;4.73;100.00
6567;BME280;3317;43.994;22.878;2023-03-01T03:14:06;101985.34;;;4.69;100.00
6567;BME280;3317;43.994;22.878;2023-03-01T03:16:41;101982.41;;;4.74;100.00
6567;BME280;3317;43.994;22.878;2023-03-01T03:19:08;101979.28;;;4.65;100.00
6567;BME280;3317;43.994;22.878;2023-03-01T03:21:35;101973.91;;;4.65;100.00
6567;BME280;3317;43.994;22.878;2023-03-01T03:24:02;101971.22;;;4.65;100.00
6567;BME280;3317;43.994;22.878;2023-03-01T03:26:30;101967.09;;;4.60;100.00
6567;BME280;3317;43.994;22.878;2023-03-01T03:28:57;101974.72;;;4.68;100.00
6567;BME280;3317;43.994;22.878;2023-03-01T03:31:25;101974.00;;;4.64;100.00
6567;BME280;3317;43.994;22.878;2023-03-01T03:33:53;101971.06;;;4.69;100.00
6567;BME280;3317;43.994;22.878;2023-03-01T03:36:22;101965.78;;;4.67;100.00
6567;BME280;3317;43.994;22.878;2023-03-01T03:38:49;101969.59;;;4.63;100.00
6567;BME280;3317;43.994;22.878;2023-03-01T03:41:17;101974.25;;;4.59;100.00
6567;BME280;3317;43.994;22.878;2023-03-01T03:43:44;101970.44;;;4.63;100.00
6567;BME280;3317;43.994;22.878;2023-03-01T03:46:12;101971.22;;;4.65;100.00
6567;BME280;3317;43.994;22.878;2023-03-01T03:48:40;101971.31;;;4.64;100.00
6567;BME280;3317;43.994;22.878;2023-03-01T03:51:11;101974.78;;;4.66;100.00
6567;BME280;3317;43.994;22.878;2023-03-01T03:53:40;101977.81;;;4.76;100.00
6567;BME280;3317;43.994;22.878;2023-03-01T03:56:07;101979.66;;;4.75;100.00
6567;BME280;3317;43.994;22.878;2023-03-01T03:58:34;101970.47;;;4.79;100.00
6567;BME280;3317;43.994;22.878;2023-03-01T04:01:01;101969.59;;;4.79;100.00
6567;BME280;3317;43.994;22.878;2023-03-01T04:03:29;101974.19;;;4.77;100.00
6567;BME280;3317;43.994;22.878;2023-03-01T04:05:58;101967.84;;;4.78;100.00
6567;BME280;3317;43.994;22.878;2023-03-01T04:08:27;101974.97;;;4.79;100.00
6567;BME280;3317;43.994;22.878;2023-03-01T04:10:58;101980.19;;;4.82;100.00
6567;BME280;3317;43.994;22.878;2023-03-01T04:13:26;101979.72;;;4.74;100.00
6567;BME280;3317;43.994;22.878;2023-03-01T04:15:53;101979.03;;;4.70;100.00
6567;BME280;3317;43.994;22.878;2023-03-01T04:18:23;101967.50;;;4.68;100.00
6567;BME280;3317;43.994;22.878;2023-03-01T04:20:50;101973.66;;;4.70;100.00
6567;BME280;3317;43.994;22.878;2023-03-01T04:23:20;101971.69;;;4.74;100.00
6567;BME280;3317;43.994;22.878;2023-03-01T04:25:51;101968.91;;;4.75;100.00
6567;BME280;3317;43.994;22.878;2023-03-01T04:28:21;101976.88;;;4.77;100.00
6567;BME280;3317;43.994;22.878;2023-03-01T04:30:50;101978.06;;;4.71;100.00
6567;BME280;3317;43.994;22.878;2023-03-01T04:33:17;101951.31;;;4.70;100.00
6567;BME280;3317;43.994;22.878;2023-03-01T04:35:44;101969.00;;;4.74;100.00
6567;BME280;3317;43.994;22.878;2023-03-01T04:38:14;101971.69;;;4.74;100.00
6567;BME280;3317;43.994;22.878;2023-03-01T04:40:42;101965.53;;;4.72;100.00
6567;BME280;3317;43.994;22.878;2023-03-01T04:43:11;101964.41;;;4.76;100.00
6567;BME280;3317;43.994;22.878;2023-03-01T04:45:39;101960.16;;;4.72;100.00
6567;BME280;3317;43.994;22.878;2023-03-01T04:48:07;101959.78;;;4.78;100.00
6567;BME280;3317;43.994;22.878;2023-03-01T04:50:34;101893.34;;;4.33;100.00
6567;BME280;3317;43.994;22.878;2023-03-01T04:53:02;101964.50;;;4.74;100.00
6567;BME280;3317;43.994;22.878;2023-03-01T04:55:29;101970.66;;;4.76;100.00
6567;BME280;3317;43.994;22.878;2023-03-01T04:57:56;101966.13;;;4.77;100.00
6567;BME280;3317;43.994;22.878;2023-03-01T05:00:25;101966.81;;;4.81;100.00
6567;BME280;3317;43.994;22.878;2023-03-01T05:02:54;101970.53;;;4.78;100.00
6567;BME280;3317;43.994;22.878;2023-03-01T05:05:26;101972.13;;;4.82;100.00
6567;BME280;3317;43.994;22.878;2023-03-01T05:07:55;101972.38;;;4.77;100.00
6567;BME280;3317;43.994;22.878;2023-03-01T05:10:23;101977.66;;;4.79;100.00
6567;BME280;3317;43.994;22.878;2023-03-01T05:12:50;101975.13;;;4.76;100.00
6567;BME280;3317;43.994;22.878;2023-03-01T05:15:19;101974.09;;;4.78;100.00
6567;BME280;3317;43.994;22.878;2023-03-01T05:17:48;101969.59;;;4.79;100.00
6567;BME280;3317;43.994;22.878;2023-03-01T05:20:15;101945.84;;;4.71;100.00
6567;BME280;3317;43.994;22.878;2023-03-01T05:22:42;101973.50;;;4.89;100.00
6567;BME280;3317;43.994;22.878;2023-03-01T05:25:09;101988.94;;;4.86;100.00
6567;BME280;3317;43.994;22.878;2023-03-01T05:27:39;101981.66;;;4.88;100.00
6567;BME280;3317;43.994;22.878;2023-03-01T05:30:08;101979.22;;;4.83;100.00
6567;BME280;3317;43.994;22.878;2023-03-01T05:32:44;101977.06;;;4.90;100.00
6567;BME280;3317;43.994;22.878;2023-03-01T05:35:14;101982.63;;;4.87;100.00
6567;BME280;3317;43.994;22.878;2023-03-01T05:37:45;101971.06;;;4.85;100.00
6567;BME280;3317;43.994;22.878;2023-03-01T05:40:14;101972.72;;;4.87;100.00
6567;BME280;3317;43.994;22.878;2023-03-01T05:42:46;101980.78;;;4.87;99.98
6567;BME280;3317;43.994;22.878;2023-03-01T05:45:14;101979.22;;;4.83;100.00
6567;BME280;3317;43.994;22.878;2023-03-01T05:47:42;101988.06;;;4.85;100.00
6567;BME280;3317;43.994;22.878;2023-03-01T05:50:16;101967.19;;;4.74;100.00
6567;BME280;3317;43.994;22.878;2023-03-01T05:52:45;101985.38;;;4.85;100.00
6567;BME280;3317;43.994;22.878;2023-03-01T05:55:12;101983.13;;;4.93;99.81
6567;BME280;3317;43.994;22.878;2023-03-01T05:57:39;101974.44;;;4.88;99.97
6567;BME280;3317;43.994;22.878;2023-03-01T06:00:07;101963.63;;;4.90;99.78
6567;BME280;3317;43.994;22.878;2023-03-01T06:02:34;101973.44;;;4.91;99.92
6567;BME280;3317;43.994;22.878;2023-03-01T06:05:01;101976.38;;;4.86;100.00
6567;BME280;3317;43.994;22.878;2023-03-01T06:07:30;101976.53;;;4.83;100.00
6567;BME280;3317;43.994;22.878;2023-03-01T06:09:57;101974.09;;;4.78;100.00
6567;BME280;3317;43.994;22.878;2023-03-01T06:12:24;101973.84;;;4.83;100.00
6567;BME280;3317;43.994;22.878;2023-03-01T06:14:51;101966.13;;;4.77;100.00
6567;BME280;3317;43.994;22.878;2023-03-01T06:17:18;101977.75;;;4.77;100.00
6567;BME280;3317;43.994;22.878;2023-03-01T06:19:46;101975.91;;;4.78;100.00
6567;BME280;3317;43.994;22.878;2023-03-01T06:22:13;101977.75;;;4.77;100.00
6567;BME280;3317;43.994;22.878;2023-03-01T06:24:41;101991.25;;;4.76;100.00
6567;BME280;3317;43.994;22.878;2023-03-01T06:27:08;101986.84;;;4.75;100.00
6567;BME280;3317;43.994;22.878;2023-03-01T06:29:35;101990.41;;;4.75;100.00
6567;BME280;3317;43.994;22.878;2023-03-01T06:32:02;101969.59;;;4.63;100.00
6567;BME280;3317;43.994;22.878;2023-03-01T06:34:29;101981.38;;;4.76;100.00
6567;BME280;3317;43.994;22.878;2023-03-01T06:36:56;101990.16;;;4.80;100.00
6567;BME280;3317;43.994;22.878;2023-03-01T06:39:23;101983.03;;;4.79;100.00
6567;BME280;3317;43.994;22.878;2023-03-01T06:41:51;101989.03;;;4.84;100.00
6567;BME280;3317;43.994;22.878;2023-03-01T06:44:18;101993.88;;;4.77;100.00
6567;BME280;3317;43.994;22.878;2023-03-01T06:46:45;102007.03;;;4.82;99.74
6567;BME280;3317;43.994;22.878;2023-03-01T06:49:12;102001.50;;;4.85;99.68
6567;BME280;3317;43.994;22.878;2023-03-01T06:51:39;102016.13;;;4.79;99.37
6567;BME280;3317;43.994;22.878;2023-03-01T06:54:06;102005.38;;;4.79;99.35
6567;BME280;3317;43.994;22.878;2023-03-01T06:56:33;101999.75;;;4.68;99.51
6567;BME280;3317;43.994;22.878;2023-03-01T06:59:01;102010.75;;;4.79;99.41
6567;BME280;3317;43.994;22.878;2023-03-01T07:01:29;102008.16;;;4.78;99.18
6567;BME280;3317;43.994;22.878;2023-03-01T07:03:56;102007.91;;;4.83;99.48
6567;BME280;3317;43.994;22.878;2023-03-01T07:06:23;102003.94;;;4.90;98.98
6567;BME280;3317;43.994;22.878;2023-03-01T07:08:50;102002.63;;;4.81;98.89
6567;BME280;3317;43.994;22.878;2023-03-01T07:11:17;101950.69;;;4.48;99.48
6567;BME280;3317;43.994;22.878;2023-03-01T07:13:44;102009.81;;;4.81;99.34
6567;BME280;3317;43.994;22.878;2023-03-01T07:16:12;102006.88;;;4.85;99.41
6567;BME280;3317;43.994;22.878;2023-03-01T07:18:39;102000.78;;;4.82;99.62
6567;BME280;3317;43.994;22.878;2023-03-01T07:21:07;102005.13;;;4.84;99.45
6567;BME280;3317;43.994;22.878;2023-03-01T07:23:34;102002.63;;;4.81;99.64
6567;BME280;3317;43.994;22.878;2023-03-01T07:26:01;101993.94;;;4.76;99.99
6567;BME280;3317;43.994;22.878;2023-03-01T07:28:28;101998.75;;;4.87;99.51
6567;BME280;3317;43.994;22.878;2023-03-01T07:31:00;102004.19;;;4.85;99.66
6567;BME280;3317;43.994;22.878;2023-03-01T07:33:29;102000.00;;;4.79;100.00
6567;BME280;3317;43.994;22.878;2023-03-01T07:35:57;101966.03;;;4.62;100.00
6567;BME280;3317;43.994;22.878;2023-03-01T07:38:24;101999.84;;;4.83;99.97
6567;BME280;3317;43.994;22.878;2023-03-01T07:40:51;101995.16;;;4.86;99.55
6567;BME280;3317;43.994;22.878;2023-03-01T07:43:18;101977.75;;;4.77;99.72
6567;BME280;3317;43.994;22.878;2023-03-01T07:45:46;101991.44;;;4.89;99.71
6567;BME280;3317;43.994;22.878;2023-03-01T07:48:12;101999.50;;;4.89;99.53
6567;BME280;3317;43.994;22.878;2023-03-01T07:50:41;101998.44;;;4.91;99.15
6567;BME280;3317;43.994;22.878;2023-03-01T07:53:08;102007.75;;;4.86;99.09
6567;BME280;3317;43.994;22.878;2023-03-01T07:55:35;102006.69;;;4.88;99.50
6567;BME280;3317;43.994;22.878;2023-03-01T07:58:02;102000.81;;;4.98;98.86
6567;BME280;3317;43.994;22.878;2023-03-01T08:00:29;102016.75;;;5.01;99.12
6567;BME280;3317;43.994;22.878;2023-03-01T08:02:58;102002.47;;;5.00;98.67
6567;BME280;3317;43.994;22.878;2023-03-01T08:05:25;102001.00;;;4.95;98.46
6567;BME280;3317;43.994;22.878;2023-03-01T08:07:54;101971.06;;;4.69;98.75
6567;BME280;3317;43.994;22.878;2023-03-01T08:10:21;102002.72;;;4.96;98.94
6567;BME280;3317;43.994;22.878;2023-03-01T08:12:48;101997.88;;;5.02;98.50
6567;BME280;3317;43.994;22.878;2023-03-01T08:15:17;102006.19;;;4.98;98.00
6567;BME280;3317;43.994;22.878;2023-03-01T08:17:44;102005.31;;;4.97;98.17
6567;BME280;3317;43.994;22.878;2023-03-01T08:20:11;101999.25;;;4.93;97.63
6567;BME280;3317;43.994;22.878;2023-03-01T08:22:38;101980.25;;;4.81;97.89
6567;BME280;3317;43.994;22.878;2023-03-01T08:25:07;102008.16;;;4.94;98.43
6567;BME280;3317;43.994;22.878;2023-03-01T08:27:34;102008.28;;;4.92;98.15
6567;BME280;3317;43.994;22.878;2023-03-01T08:30:02;101982.34;;;4.91;98.32
6567;BME280;3317;43.994;22.878;2023-03-01T08:32:29;101992.94;;;4.95;98.08
6567;BME280;3317;43.994;22.878;2023-03-01T08:34:56;101985.53;;;4.98;98.00
6567;BME280;3317;43.994;22.878;2023-03-01T08:37:22;101995.25;;;5.01;97.88
6567;BME280;3317;43.994;22.878;2023-03-01T08:39:49;101997.09;;;5.00;97.83
6567;BME280;3317;43.994;22.878;2023-03-01T08:42:18;101994.41;;;5.00;98.19
6567;BME280;3317;43.994;22.878;2023-03-01T08:44:45;101989.88;;;5.01;97.97
6567;BME280;3317;43.994;22.878;2023-03-01T08:47:12;101999.69;;;5.02;97.86
6567;BME280;3317;43.994;22.878;2023-03-01T08:49:38;101998.13;;;5.14;97.59
6567;BME280;3317;43.994;22.878;2023-03-01T08:52:05;101985.22;;;5.04;97.55
6567;BME280;3317;43.994;22.878;2023-03-01T08:54:32;101985.91;;;5.08;97.70
6567;BME280;3317;43.994;22.878;2023-03-01T08:57:01;101976.00;;;5.08;97.24
6567;BME280;3317;43.994;22.878;2023-03-01T08:59:30;101978.94;;;5.04;97.24
6567;BME280;3317;43.994;22.878;2023-03-01T09:02:01;101982.44;;;5.06;97.22
6567;BME280;3317;43.994;22.878;2023-03-01T09:04:27;101979.56;;;5.09;97.19
6567;BME280;3317;43.994;22.878;2023-03-01T09:06:54;101982.84;;;4.98;97.85
6567;BME280;3317;43.994;22.878;2023-03-01T09:09:21;101978.38;;;4.99;97.56
6567;BME280;3317;43.994;22.878;2023-03-01T09:11:48;101987.00;;;5.04;97.75
6567;BME280;3317;43.994;22.878;2023-03-01T09:14:16;101981.81;;;5.01;97.92
6567;BME280;3317;43.994;22.878;2023-03-01T09:16:44;101983.28;;;5.06;98.09
6567;BME280;3317;43.994;22.878;2023-03-01T09:19:11;101985.91;;;5.08;97.83
6567;BME280;3317;43.994;22.878;2023-03-01T09:21:39;101980.53;;;5.08;97.42
6567;BME280;3317;43.994;22.878;2023-03-01T09:24:06;101967.53;;;5.00;97.15
6567;BME280;3317;43.994;22.878;2023-03-01T09:26:33;101983.22;;;5.08;96.96
6567;BME280;3317;43.994;22.878;2023-03-01T09:29:00;101967.88;;;5.10;97.16
6567;BME280;3317;43.994;22.878;2023-03-01T09:31:27;101984.94;;;5.09;97.37
6567;BME280;3317;43.994;22.878;2023-03-01T09:33:55;101980.44;;;5.10;97.63
6567;BME280;3317;43.994;22.878;2023-03-01T09:36:24;101975.84;;;5.12;97.42
6567;BME280;3317;43.994;22.878;2023-03-01T09:38:52;101973.31;;;5.08;97.24
6567;BME280;3317;43.994;22.878;2023-03-01T09:41:43;101965.97;;;5.12;97.24
6567;BME280;3317;43.994;22.878;2023-03-01T09:44:16;101958.66;;;5.14;96.96
6567;BME280;3317;43.994;22.878;2023-03-01T09:46:47;101963.00;;;5.17;97.00
6567;BME280;3317;43.994;22.878;2023-03-01T09:49:18;101972.28;;;5.11;97.20
6567;BME280;3317;43.994;22.878;2023-03-01T09:51:54;101967.94;;;5.08;97.63
6567;BME280;3317;43.994;22.878;2023-03-01T09:54:22;101967.34;;;5.19;97.56
6567;BME280;3317;43.994;22.878;2023-03-01T09:56:59;101970.44;;;5.28;97.09
6567;BME280;3317;43.994;22.878;2023-03-01T09:59:39;101975.66;;;5.31;97.19
6567;BME280;3317;43.994;22.878;2023-03-01T10:02:25;101968.44;;;5.31;97.15
6567;BME280;3317;43.994;22.878;2023-03-01T10:04:58;101966.66;;;5.32;97.23
6567;BME280;3317;43.994;22.878;2023-03-01T10:07:38;101971.66;;;5.38;96.79
6567;BME280;3317;43.994;22.878;2023-03-01T10:10:10;101977.41;;;5.32;96.56
6567;BME280;3317;43.994;22.878;2023-03-01T10:12:43;101964.63;;;5.35;96.31
6567;BME280;3317;43.994;22.878;2023-03-01T10:15:14;101970.09;;;5.34;96.37
6567;BME280;3317;43.994;22.878;2023-03-01T10:17:47;101942.19;;;5.20;96.33
6567;BME280;3317;43.994;22.878;2023-03-01T10:20:20;101961.41;;;5.29;96.75
6567;BME280;3317;43.994;22.878;2023-03-01T10:22:47;101958.38;;;5.35;96.42
6567;BME280;3317;43.994;22.878;2023-03-01T10:25:28;101954.81;;;5.34;96.37
6567;BME280;3317;43.994;22.878;2023-03-01T10:28:02;101952.38;;;5.46;96.11
6567;BME280;3317;43.994;22.878;2023-03-01T10:30:35;101951.34;;;5.48;96.35
6567;BME280;3317;43.994;22.878;2023-03-01T10:33:08;101935.94;;;5.36;96.35
6567;BME280;3317;43.994;22.878;2023-03-01T10:35:38;101941.28;;;5.52;95.77
6567;BME280;3317;43.994;22.878;2023-03-01T10:38:08;101940.13;;;5.56;95.20
6567;BME280;3317;43.994;22.878;2023-03-01T10:40:51;101862.81;;;5.15;95.61
6567;BME280;3317;43.994;22.878;2023-03-01T10:43:19;101925.03;;;5.54;95.43
6567;BME280;3317;43.994;22.878;2023-03-01T10:45:46;101932.06;;;5.56;95.88
6567;BME280;3317;43.994;22.878;2023-03-01T10:48:15;101922.75;;;5.62;95.85
6567;BME280;3317;43.994;22.878;2023-03-01T10:50:45;101923.34;;;5.67;96.20
6567;BME280;3317;43.994;22.878;2023-03-01T10:53:22;101920.28;;;5.73;95.74
6567;BME280;3317;43.994;22.878;2023-03-01T10:55:58;101916.63;;;5.74;95.34
6567;BME280;3317;43.994;22.878;2023-03-01T10:58:26;101911.34;;;5.73;94.76
6567;BME280;3317;43.994;22.878;2023-03-01T11:00:54;101900.78;;;5.70;95.54
6567;BME280;3317;43.994;22.878;2023-03-01T11:03:24;101911.81;;;5.65;94.70
6567;BME280;3317;43.994;22.878;2023-03-01T11:06:04;101903.94;;;5.76;94.58
6567;BME280;3317;43.994;22.878;2023-03-01T11:08:37;101899.72;;;5.72;94.57
6567;BME280;3317;43.994;22.878;2023-03-01T11:11:10;101897.81;;;5.74;94.42
6567;BME280;3317;43.994;22.878;2023-03-01T11:13:50;101900.84;;;5.68;94.62
6567;BME280;3317;43.994;22.878;2023-03-01T11:16:24;101886.34;;;5.71;94.75
6567;BME280;3317;43.994;22.878;2023-03-01T11:19:15;101885.50;;;5.70;94.29
6567;BME280;3317;43.994;22.878;2023-03-01T11:21:50;101889.31;;;5.66;94.30
6567;BME280;3317;43.994;22.878;2023-03-01T11:24:19;101891.06;;;5.67;94.20
6567;BME280;3317;43.994;22.878;2023-03-01T11:26:50;101878.22;;;5.72;93.96
6567;BME280;3317;43.994;22.878;2023-03-01T11:29:27;101875.78;;;5.68;94.64
6567;BME280;3317;43.994;22.878;2023-03-01T11:32:01;101871.66;;;5.62;94.57
6567;BME280;3317;43.994;22.878;2023-03-01T11:34:38;101867.81;;;5.66;94.42
6567;BME280;3317;43.994;22.878;2023-03-01T11:37:15;101865.13;;;5.66;94.02
6567;BME280;3317;43.994;22.878;2023-03-01T11:39:54;101869.31;;;5.56;94.05
6567;BME280;3317;43.994;22.878;2023-03-01T11:42:29;101848.19;;;5.49;94.07
6567;BME280;3317;43.994;22.878;2023-03-01T11:45:08;101872.50;;;5.62;93.61
6567;BME280;3317;43.994;22.878;2023-03-01T11:47:58;101880.13;;;5.70;93.36
6567;BME280;3317;43.994;22.878;2023-03-01T11:50:31;101868.41;;;5.71;93.14
6567;BME280;3317;43.994;22.878;2023-03-01T11:53:15;101872.16;;;5.83;92.56
6567;BME280;3317;43.994;22.878;2023-03-01T11:56:03;101873.59;;;5.89;92.30
6567;BME280;3317;43.994;22.878;2023-03-01T11:59:02;101878.03;;;5.90;92.23
6567;BME280;3317;43.994;22.878;2023-03-01T12:01:44;101854.66;;;5.76;92.13
6567;BME280;3317;43.994;22.878;2023-03-01T12:07:30;101854.00;;;5.87;91.54
6567;BME280;3317;43.994;22.878;2023-03-01T12:10:17;101845.16;;;5.85;91.07
6567;BME280;3317;43.994;22.878;2023-03-01T12:15:49;101862.34;;;5.82;91.13
6567;BME280;3317;43.994;22.878;2023-03-01T12:18:34;101855.16;;;5.83;91.17
6567;BME280;3317;43.994;22.878;2023-03-01T12:21:12;101845.72;;;5.90;91.16
6567;BME280;3317;43.994;22.878;2023-03-01T12:23:56;101835.84;;;5.90;91.38
6567;BME280;3317;43.994;22.878;2023-03-01T12:26:31;101834.50;;;5.83;91.55
6567;BME280;3317;43.994;22.878;2023-03-01T12:29:16;101830.94;;;5.83;91.72
6567;BME280;3317;43.994;22.878;2023-03-01T12:32:12;101832.47;;;5.87;91.81
6567;BME280;3317;43.994;22.878;2023-03-01T12:34:56;101828.75;;;5.89;91.56
6567;BME280;3317;43.994;22.878;2023-03-01T12:37:31;101819.38;;;5.95;91.05
6567;BME280;3317;43.994;22.878;2023-03-01T12:40:16;101828.63;;;5.91;90.91
6567;BME280;3317;43.994;22.878;2023-03-01T12:42:58;101823.25;;;5.91;90.59
6567;BME280;3317;43.994;22.878;2023-03-01T12:45:40;101827.78;;;5.90;91.04
6567;BME280;3317;43.994;22.878;2023-03-01T12:48:21;101821.16;;;5.96;90.73
6567;BME280;3317;43.994;22.878;2023-03-01T12:50:52;101814.22;;;5.92;90.77
6567;BME280;3317;43.994;22.878;2023-03-01T12:53:25;101818.16;;;5.86;90.63
6567;BME280;3317;43.994;22.878;2023-03-01T12:55:55;101819.69;;;5.90;90.50
6567;BME280;3317;43.994;22.878;2023-03-01T12:58:28;101813.94;;;5.82;90.55
6567;BME280;3317;43.994;22.878;2023-03-01T13:01:16;101810.66;;;5.91;91.15
6567;BME280;3317;43.994;22.878;2023-03-01T13:04:02;101806.53;;;5.86;91.54
6567;BME280;3317;43.994;22.878;2023-03-01T13:06:36;101813.94;;;5.82;91.87
6567;BME280;3317;43.994;22.878;2023-03-01T13:09:14;101810.06;;;5.86;91.78
6567;BME280;3317;43.994;22.878;2023-03-01T13:11:44;101806.34;;;5.89;91.47
6567;BME280;3317;43.994;22.878;2023-03-01T13:14:45;101800.66;;;5.94;91.88
6567;BME280;3317;43.994;22.878;2023-03-01T13:17:33;101808.44;;;5.98;91.81
6567;BME280;3317;43.994;22.878;2023-03-01T13:20:13;101799.63;;;5.96;92.21
6567;BME280;3317;43.994;22.878;2023-03-01T13:22:40;101798.00;;;6.08;91.61
6567;BME280;3317;43.994;22.878;2023-03-01T13:25:16;101794.53;;;6.06;91.71
6567;BME280;3317;43.994;22.878;2023-03-01T13:27:45;101797.31;;;6.04;91.74
6567;BME280;3317;43.994;22.878;2023-03-01T13:30:41;101794.03;;;5.99;91.79